createdAt,value
2019-03-15T00:00:40.608Z,12.70
2019-03-15T00:03:09.815Z,14.63
2019-03-15T00:05:38.966Z,15.97
2019-03-15T00:08:08.112Z,13.33
2019-03-15T00:10:37.288Z,13.30
2019-03-15T00:13:06.450Z,13.60
2019-03-15T00:15:35.697Z,14.37
2019-03-15T00:18:04.878Z,11.83
2019-03-15T00:20:34.218Z,14.87
2019-03-15T00:23:03.406Z,13.60
2019-03-15T00:25:32.544Z,12.03
2019-03-15T00:28:01.752Z,12.10
2019-03-15T00:30:30.903Z,16.23
2019-03-15T00:33:00.356Z,23.03
2019-03-15T00:35:29.487Z,15.77
2019-03-15T00:37:58.854Z,11.70
2019-03-15T00:40:28.694Z,8.70
2019-03-15T00:42:57.893Z,10.87
2019-03-15T00:45:27.045Z,14.90
2019-03-15T00:47:56.253Z,12.87
2019-03-15T00:50:25.387Z,9.83
2019-03-15T00:52:54.574Z,7.97
2019-03-15T00:55:23.733Z,11.63
2019-03-15T00:57:52.970Z,8.47
2019-03-15T01:00:22.286Z,12.37
2019-03-15T01:02:51.552Z,10.43
2019-03-15T01:05:20.727Z,11.83
2019-03-15T01:07:49.842Z,11.33
2019-03-15T01:10:19.061Z,10.57
2019-03-15T01:12:48.335Z,10.90
2019-03-15T01:15:17.485Z,12.17
2019-03-15T01:17:46.688Z,14.07
2019-03-15T01:20:15.849Z,16.30
2019-03-15T01:22:45.014Z,15.97
2019-03-15T01:25:14.294Z,15.00
2019-03-15T01:27:43.493Z,11.77
2019-03-15T01:30:12.701Z,15.93
2019-03-15T01:32:41.902Z,13.43
2019-03-15T01:35:11.202Z,11.97
2019-03-15T01:37:40.357Z,9.30
2019-03-15T01:40:09.674Z,10.97
2019-03-15T01:42:38.922Z,7.77
2019-03-15T01:45:08.235Z,9.90
2019-03-15T01:47:37.406Z,7.93
2019-03-15T01:50:06.777Z,8.53
2019-03-15T01:52:36.977Z,10.77
2019-03-15T01:55:06.169Z,11.63
2019-03-15T01:57:35.289Z,25.03
2019-03-15T02:00:04.914Z,12.20
2019-03-15T02:02:34.057Z,14.00
2019-03-15T02:05:03.137Z,8.03
2019-03-15T02:07:32.307Z,6.97
2019-03-15T02:10:01.429Z,9.37
2019-03-15T02:12:30.612Z,13.23
2019-03-15T02:14:59.718Z,14.13
2019-03-15T02:17:28.842Z,8.63
2019-03-15T02:19:57.994Z,11.77
2019-03-15T02:22:28.114Z,7.33
2019-03-15T02:24:57.222Z,11.63
2019-03-15T02:27:26.358Z,8.13
2019-03-15T02:29:55.522Z,13.37
2019-03-15T02:32:24.615Z,6.80
2019-03-15T02:34:54.043Z,12.63
2019-03-15T02:37:24.301Z,10.33
2019-03-15T02:39:59.504Z,10.33
2019-03-15T02:42:28.707Z,7.87
2019-03-15T02:44:57.843Z,10.83
2019-03-15T02:47:27.382Z,6.97
2019-03-15T02:49:56.567Z,5.33
2019-03-15T02:52:25.766Z,4.13
2019-03-15T02:54:55.008Z,4.33
2019-03-15T02:57:24.155Z,3.27
2019-03-15T02:59:53.279Z,3.37
2019-03-15T03:02:22.412Z,6.87
2019-03-15T03:04:51.627Z,3.63
2019-03-15T03:07:21.151Z,3.80
2019-03-15T03:09:50.488Z,2.30
2019-03-15T03:12:19.616Z,4.33
2019-03-15T03:14:48.758Z,2.80
2019-03-15T03:17:17.920Z,2.47
2019-03-15T03:19:47.132Z,4.03
2019-03-15T03:22:16.264Z,4.07
2019-03-15T03:24:45.485Z,2.47
2019-03-15T03:27:14.702Z,6.70
2019-03-15T03:29:43.831Z,3.60
2019-03-15T03:32:14.205Z,5.20
2019-03-15T03:34:43.680Z,1.67
2019-03-15T03:37:12.835Z,3.50
2019-03-15T03:39:41.997Z,3.70
2019-03-15T03:42:11.189Z,1.30
2019-03-15T03:44:40.349Z,1.93
2019-03-15T03:47:09.486Z,5.33
2019-03-15T03:49:38.836Z,2.70
2019-03-15T03:52:08.190Z,3.10
2019-03-15T03:54:37.342Z,1.50
2019-03-15T03:57:06.528Z,2.60
2019-03-15T03:59:35.789Z,1.23
2019-03-15T04:02:04.886Z,3.13
2019-03-15T04:04:34.029Z,1.87
2019-03-15T04:07:03.230Z,1.93
2019-03-15T04:09:32.455Z,3.90
2019-03-15T04:12:01.595Z,1.53
2019-03-15T04:14:30.744Z,4.37
2019-03-15T04:16:59.942Z,5.50
2019-03-15T04:19:29.073Z,5.07
2019-03-15T04:21:58.313Z,2.93
2019-03-15T04:24:27.433Z,6.33
2019-03-15T04:26:56.635Z,6.13
2019-03-15T04:29:25.812Z,6.13
2019-03-15T04:31:54.929Z,3.80
2019-03-15T04:34:24.064Z,3.83
2019-03-15T04:36:53.205Z,4.57
2019-03-15T04:39:22.326Z,5.73
2019-03-15T04:41:51.440Z,4.43
2019-03-15T04:44:20.577Z,5.47
2019-03-15T04:46:49.792Z,4.97
2019-03-15T04:49:18.933Z,2.93
2019-03-15T04:51:48.130Z,4.87
2019-03-15T04:54:17.345Z,6.10
2019-03-15T04:56:46.527Z,4.20
2019-03-15T04:59:15.733Z,6.40
2019-03-15T05:01:44.924Z,7.17
2019-03-15T05:04:14.136Z,5.20
2019-03-15T05:06:43.287Z,5.50
2019-03-15T05:09:12.406Z,7.20
2019-03-15T05:11:41.585Z,7.47
2019-03-15T05:14:10.704Z,5.17
2019-03-15T05:16:39.838Z,5.00
2019-03-15T05:19:09.097Z,6.77
2019-03-15T05:21:38.295Z,10.13
2019-03-15T05:24:07.595Z,5.97
2019-03-15T05:26:36.838Z,6.77
2019-03-15T05:29:06.084Z,5.57
2019-03-15T05:31:35.247Z,4.50
2019-03-15T05:34:04.462Z,6.07
2019-03-15T05:36:33.583Z,7.87
2019-03-15T05:39:02.848Z,7.77
2019-03-15T05:41:31.978Z,8.77
2019-03-15T05:44:01.150Z,10.50
2019-03-15T05:46:30.260Z,6.93
2019-03-15T05:48:59.502Z,10.50
2019-03-15T05:51:28.655Z,13.80
2019-03-15T05:53:57.800Z,11.07
2019-03-15T05:56:26.950Z,6.70
2019-03-15T05:58:56.156Z,8.37
2019-03-15T06:01:25.291Z,7.97
2019-03-15T06:03:54.417Z,7.40
2019-03-15T06:06:23.586Z,9.40
2019-03-15T06:08:52.772Z,6.43
2019-03-15T06:11:22.951Z,10.40
2019-03-15T06:13:52.245Z,3.63
2019-03-15T06:16:21.540Z,10.00
2019-03-15T06:18:50.850Z,7.83
2019-03-15T06:21:25.697Z,12.50
2019-03-15T06:23:54.795Z,4.53
2019-03-15T06:26:24.175Z,8.23
2019-03-15T06:28:53.306Z,4.57
2019-03-15T06:31:22.571Z,6.77
2019-03-15T06:33:51.710Z,9.13
2019-03-15T06:46:42.089Z,4.87
2019-03-15T06:49:11.275Z,12.10
2019-03-15T06:51:40.382Z,5.93
2019-03-15T06:54:11.668Z,6.50
2019-03-15T06:56:40.549Z,4.53
2019-03-15T06:59:09.865Z,4.60
2019-03-15T07:01:40.914Z,6.17
2019-03-15T07:04:10.188Z,2.53
2019-03-15T07:06:39.410Z,4.73
2019-03-15T07:09:08.630Z,3.57
2019-03-15T07:11:38.853Z,7.27
2019-03-15T07:14:07.991Z,3.73
2019-03-15T07:16:38.341Z,5.53
2019-03-15T07:19:07.678Z,4.87
2019-03-15T07:21:37.102Z,2.97
2019-03-15T07:24:06.369Z,5.03
2019-03-15T07:26:35.540Z,2.93
2019-03-15T07:29:04.674Z,3.60
2019-03-15T07:31:33.883Z,5.67
2019-03-15T07:34:03.045Z,1.00
2019-03-15T07:36:32.276Z,5.67
2019-03-15T07:39:01.491Z,3.70
2019-03-15T07:41:30.727Z,6.40
2019-03-15T07:43:59.850Z,4.77
2019-03-15T07:46:29.022Z,4.23
2019-03-15T07:48:58.236Z,4.37
2019-03-15T07:51:27.830Z,5.00
2019-03-15T07:53:57.027Z,5.97
2019-03-15T07:56:28.643Z,7.00
2019-03-15T07:58:57.223Z,5.47
2019-03-15T08:01:26.441Z,6.57
2019-03-15T08:03:55.603Z,4.73
2019-03-15T08:06:34.276Z,7.13
2019-03-15T08:08:55.662Z,4.43
2019-03-15T08:11:24.867Z,4.93
2019-03-15T08:13:54.140Z,5.63
2019-03-15T08:16:23.255Z,9.77
2019-03-15T08:18:52.382Z,4.97
2019-03-15T08:21:22.786Z,7.70
2019-03-15T08:23:52.010Z,8.33
2019-03-15T08:26:21.133Z,7.50
2019-03-15T08:28:50.278Z,5.27
2019-03-15T08:31:19.463Z,8.17
2019-03-15T08:33:48.764Z,3.77
2019-03-15T08:36:20.325Z,4.50
2019-03-15T08:38:48.803Z,6.80
2019-03-15T08:41:17.939Z,8.40
2019-03-15T08:43:47.134Z,3.43
2019-03-15T08:46:16.348Z,5.20
2019-03-15T08:48:45.482Z,6.80
2019-03-15T08:51:14.615Z,3.30
2019-03-15T08:53:43.834Z,5.07
2019-03-15T08:56:14.496Z,5.37
2019-03-15T08:58:44.170Z,6.30
2019-03-15T09:01:13.455Z,6.70
2019-03-15T09:03:42.779Z,4.43
2019-03-15T09:06:11.908Z,4.97
2019-03-15T09:08:41.031Z,7.47
2019-03-15T09:11:10.159Z,5.33
2019-03-15T09:13:39.341Z,5.40
2019-03-15T09:16:08.518Z,5.63
2019-03-15T09:18:37.656Z,11.77
2019-03-15T09:21:06.779Z,6.40
2019-03-15T09:23:36.026Z,5.13
2019-03-15T09:26:05.207Z,8.10
2019-03-15T09:28:34.379Z,4.30
2019-03-15T09:31:03.553Z,3.50
2019-03-15T09:33:32.715Z,4.93
2019-03-15T09:36:01.860Z,4.93
2019-03-15T09:38:30.991Z,7.77
2019-03-15T09:41:00.179Z,4.97
2019-03-15T09:43:29.406Z,4.17
2019-03-15T09:45:58.696Z,3.33
2019-03-15T09:48:27.847Z,4.27
2019-03-15T09:50:57.027Z,7.63
2019-03-15T09:53:26.296Z,3.87
2019-03-15T09:55:55.411Z,3.37
2019-03-15T09:58:24.935Z,3.73
2019-03-15T10:00:54.199Z,5.10
2019-03-15T10:03:23.351Z,5.77
2019-03-15T10:05:52.582Z,3.30
2019-03-15T10:08:23.646Z,6.57
2019-03-15T10:10:52.741Z,8.00
2019-03-15T10:13:22.111Z,6.63
2019-03-15T10:15:51.489Z,8.20
2019-03-15T10:18:20.852Z,7.67
2019-03-15T10:20:50.011Z,8.93
2019-03-15T10:23:19.420Z,6.90
2019-03-15T10:25:51.213Z,8.33
2019-03-15T10:28:19.399Z,5.77
2019-03-15T10:30:48.764Z,6.97
2019-03-15T10:33:17.879Z,9.40
2019-03-15T10:35:47.014Z,11.17
2019-03-15T10:38:16.851Z,9.97
2019-03-15T10:40:47.171Z,8.70
2019-03-15T10:43:16.489Z,11.10
2019-03-15T10:46:10.912Z,9.37
2019-03-15T10:48:40.066Z,7.73
2019-03-15T10:51:09.366Z,13.57
2019-03-15T10:53:38.498Z,8.43
2019-03-15T10:56:07.665Z,9.53
2019-03-15T10:58:36.808Z,16.17
2019-03-15T11:01:05.949Z,12.37
2019-03-15T11:03:35.071Z,14.10
2019-03-15T11:06:04.283Z,11.97
2019-03-15T11:08:33.377Z,11.70
2019-03-15T11:11:02.755Z,18.00
2019-03-15T11:13:32.110Z,16.33
2019-03-15T11:16:01.440Z,14.20
2019-03-15T11:18:30.656Z,11.77
2019-03-15T11:20:59.824Z,46.37
2019-03-15T11:23:29.120Z,10.53
2019-03-15T11:25:58.483Z,14.50
2019-03-15T11:28:27.814Z,16.27
2019-03-15T11:30:57.032Z,8.97
2019-03-15T11:33:26.279Z,15.30
2019-03-15T11:35:55.388Z,17.93
2019-03-15T11:38:24.580Z,18.13
2019-03-15T11:40:53.741Z,21.37
2019-03-15T11:43:22.821Z,13.70
2019-03-15T11:45:51.926Z,12.03
2019-03-15T11:48:21.013Z,11.77
2019-03-15T11:50:50.240Z,11.00
2019-03-15T11:53:19.440Z,14.83
2019-03-15T11:55:49.706Z,10.53
2019-03-15T11:58:18.789Z,14.60
2019-03-15T12:00:48.101Z,15.67
2019-03-15T12:03:17.338Z,12.40
2019-03-15T12:05:46.582Z,16.27
2019-03-15T12:08:15.703Z,17.60
2019-03-15T12:10:44.811Z,16.03
2019-03-15T12:13:13.922Z,12.23
2019-03-15T12:15:43.172Z,18.90
2019-03-15T12:18:12.336Z,22.63
2019-03-15T12:20:41.475Z,18.43
2019-03-15T12:23:10.587Z,16.80
2019-03-15T12:25:39.789Z,11.53
2019-03-15T12:28:08.948Z,19.83
2019-03-15T12:30:38.101Z,17.27
2019-03-15T12:33:07.229Z,14.23
2019-03-15T12:35:36.409Z,17.63
2019-03-15T12:38:05.603Z,15.70
2019-03-15T12:40:34.821Z,14.27
2019-03-15T12:43:04.055Z,16.00
2019-03-15T12:45:33.302Z,11.90
2019-03-15T12:48:02.659Z,13.30
2019-03-15T12:50:31.885Z,13.57
2019-03-15T12:53:00.995Z,11.80
2019-03-15T12:55:30.123Z,16.43
2019-03-15T12:57:59.319Z,15.83
2019-03-15T13:00:28.506Z,13.73
2019-03-15T13:02:57.619Z,11.10
2019-03-15T13:05:26.763Z,16.93
2019-03-15T13:07:55.881Z,14.47
2019-03-15T13:10:25.073Z,14.53
2019-03-15T13:12:54.356Z,11.80
2019-03-15T13:15:23.673Z,13.70
2019-03-15T13:17:52.841Z,10.30
2019-03-15T13:20:22.039Z,15.40
2019-03-15T13:22:51.521Z,16.87
2019-03-15T13:25:20.613Z,12.67
2019-03-15T13:27:49.729Z,15.43
2019-03-15T13:30:18.862Z,13.63
2019-03-15T13:32:47.970Z,15.60
2019-03-15T13:35:17.130Z,14.97
2019-03-15T13:37:46.286Z,14.73
2019-03-15T13:40:15.621Z,16.80
2019-03-15T13:42:45.144Z,14.47
2019-03-15T13:45:14.446Z,12.17
2019-03-15T13:47:43.593Z,11.87
2019-03-15T13:50:12.765Z,22.27
2019-03-15T13:52:42.973Z,14.13
2019-03-15T13:55:12.098Z,15.60
2019-03-15T13:57:41.338Z,13.90
2019-03-15T14:00:10.723Z,8.93
2019-03-15T14:02:39.880Z,10.60
2019-03-15T14:05:09.138Z,19.57
2019-03-15T14:07:38.284Z,11.87
2019-03-15T14:10:07.955Z,12.27
2019-03-15T14:12:37.171Z,20.37
2019-03-15T14:15:07.227Z,16.63
2019-03-15T14:17:36.473Z,16.57
2019-03-15T14:20:05.913Z,13.30
2019-03-15T14:22:35.256Z,15.20
2019-03-15T14:25:04.715Z,16.43
2019-03-15T14:27:37.710Z,15.53
2019-03-15T14:30:10.388Z,15.10
2019-03-15T14:32:39.803Z,20.77
2019-03-15T14:35:08.894Z,15.83
2019-03-15T14:37:38.330Z,18.87
2019-03-15T14:40:07.641Z,18.27
2019-03-15T14:42:36.944Z,17.90
2019-03-15T14:45:06.855Z,16.07
2019-03-15T14:47:36.105Z,23.00
2019-03-15T14:50:06.281Z,18.60
2019-03-15T14:52:35.544Z,18.90
2019-03-15T14:55:04.858Z,11.30
2019-03-15T14:57:35.043Z,12.40
2019-03-15T15:00:10.829Z,7.13
2019-03-15T15:02:38.488Z,10.00
2019-03-15T15:05:08.303Z,9.80
2019-03-15T15:07:37.447Z,9.13
2019-03-15T15:10:07.011Z,8.50
2019-03-15T15:12:36.153Z,9.17
2019-03-15T15:15:05.638Z,6.10
2019-03-15T15:17:35.899Z,8.97
2019-03-15T15:20:06.478Z,6.30
2019-03-15T15:22:35.590Z,8.67
2019-03-15T15:25:04.941Z,5.33
2019-03-15T15:27:34.068Z,8.50
2019-03-15T15:30:03.617Z,5.07
2019-03-15T15:32:34.377Z,5.67
2019-03-15T15:35:03.643Z,4.97
2019-03-15T15:37:32.891Z,5.77
2019-03-15T15:40:01.967Z,5.00
2019-03-15T15:42:31.103Z,6.90
2019-03-15T15:45:00.398Z,3.83
2019-03-15T15:47:29.547Z,5.53
2019-03-15T15:49:58.639Z,6.20
2019-03-15T15:52:27.740Z,4.97
2019-03-15T15:54:56.973Z,6.17
2019-03-15T15:57:26.117Z,6.80
2019-03-15T15:59:55.193Z,4.83
2019-03-15T16:02:24.323Z,6.20
2019-03-15T16:04:53.481Z,5.63
2019-03-15T16:07:22.598Z,3.93
2019-03-15T16:09:51.791Z,5.43
2019-03-15T16:12:21.007Z,4.83
2019-03-15T16:14:50.102Z,4.20
2019-03-15T16:17:19.343Z,5.00
2019-03-15T16:19:48.445Z,5.67
2019-03-15T16:22:17.593Z,3.70
2019-03-15T16:24:46.791Z,6.00
2019-03-15T16:27:15.889Z,9.97
2019-03-15T16:29:44.996Z,5.23
2019-03-15T16:32:14.278Z,7.30
2019-03-15T16:34:43.646Z,10.00
2019-03-15T16:37:12.774Z,10.83
2019-03-15T16:39:41.876Z,7.87
2019-03-15T16:42:11.163Z,9.43
2019-03-15T16:44:40.249Z,10.03
2019-03-15T16:47:09.471Z,5.17
2019-03-15T16:49:38.729Z,13.63
2019-03-15T16:52:07.870Z,11.63
2019-03-15T16:54:40.249Z,12.33
2019-03-15T16:57:09.372Z,16.27
2019-03-15T16:59:38.819Z,19.33
2019-03-15T17:02:08.011Z,13.00
2019-03-15T17:04:37.145Z,20.17
2019-03-15T17:07:06.301Z,17.27
2019-03-15T17:09:35.367Z,13.20
2019-03-15T17:12:04.540Z,18.67
2019-03-15T17:14:33.930Z,12.87
2019-03-15T17:17:03.065Z,17.20
2019-03-15T17:19:32.200Z,16.13
2019-03-15T17:22:01.393Z,20.60
2019-03-15T17:24:31.638Z,15.30
2019-03-15T17:27:00.783Z,21.83
2019-03-15T17:29:29.905Z,16.47
2019-03-15T17:31:59.092Z,21.70
2019-03-15T17:34:28.301Z,18.20
2019-03-15T17:37:06.510Z,20.90
2019-03-15T17:39:28.261Z,13.57
2019-03-15T17:41:57.503Z,23.07
2019-03-15T17:44:26.770Z,12.33
2019-03-15T17:46:55.888Z,12.67
2019-03-15T17:49:25.124Z,18.87
2019-03-15T17:51:54.291Z,13.73
2019-03-15T17:54:23.517Z,17.93
2019-03-15T17:56:52.880Z,14.50
2019-03-15T17:59:22.425Z,15.70
2019-03-15T18:01:51.680Z,16.07
2019-03-15T18:04:20.892Z,17.57
2019-03-15T18:06:50.077Z,18.77
2019-03-15T18:09:19.257Z,13.43
2019-03-15T18:11:48.432Z,14.70
2019-03-15T18:14:17.602Z,11.27
2019-03-15T18:16:46.709Z,17.20
2019-03-15T18:19:15.959Z,15.93
2019-03-15T18:21:45.063Z,18.87
2019-03-15T18:24:14.190Z,16.50
2019-03-15T18:26:43.299Z,12.93
2019-03-15T18:29:25.430Z,18.20
2019-03-15T18:31:43.446Z,18.37
2019-03-15T18:34:12.567Z,17.90
2019-03-15T18:36:43.052Z,21.40
2019-03-15T18:39:12.440Z,12.87
2019-03-15T18:41:41.606Z,13.40
2019-03-15T18:44:10.734Z,14.77
2019-03-15T18:46:39.851Z,12.10
2019-03-15T18:49:08.985Z,22.90
2019-03-15T18:51:38.122Z,14.10
2019-03-15T18:54:17.082Z,21.57
2019-03-15T18:56:38.057Z,19.87
2019-03-15T18:59:07.326Z,20.80
2019-03-15T19:01:36.653Z,13.97
2019-03-15T19:04:05.796Z,14.03
2019-03-15T19:06:34.903Z,16.00
2019-03-15T19:09:05.823Z,13.63
2019-03-15T19:11:34.941Z,18.63
2019-03-15T19:14:04.154Z,14.27
2019-03-15T19:16:33.283Z,18.33
2019-03-15T19:19:02.508Z,19.93
2019-03-15T19:21:31.747Z,16.93
2019-03-15T19:24:00.851Z,13.47
2019-03-15T19:26:30.096Z,19.00
2019-03-15T19:28:59.222Z,12.40
2019-03-15T19:31:28.362Z,12.63
2019-03-15T19:33:57.459Z,17.10
2019-03-15T19:36:26.542Z,18.00
2019-03-15T19:38:55.689Z,13.37
2019-03-15T19:41:24.804Z,11.70
2019-03-15T19:43:54.017Z,16.53
2019-03-15T19:46:23.126Z,15.17
2019-03-15T19:48:52.839Z,13.40
2019-03-15T19:51:21.934Z,14.30
2019-03-15T19:53:51.060Z,13.93
2019-03-15T19:56:20.160Z,17.87
2019-03-15T19:58:49.261Z,17.60
2019-03-15T20:01:18.353Z,14.53
2019-03-15T20:03:47.511Z,14.07
2019-03-15T20:06:16.609Z,8.20
2019-03-15T20:08:45.740Z,11.47
2019-03-15T20:11:15.140Z,7.23
2019-03-15T20:13:44.265Z,10.53
2019-03-15T20:16:13.439Z,10.40
2019-03-15T20:18:42.585Z,8.90
2019-03-15T20:21:11.728Z,13.30
2019-03-15T20:23:41.899Z,10.23
2019-03-15T20:26:12.019Z,7.43
2019-03-15T20:28:41.265Z,4.73
2019-03-15T20:31:10.408Z,8.13
2019-03-15T20:33:39.601Z,12.20
2019-03-15T20:36:08.809Z,10.77
2019-03-15T20:38:37.904Z,15.47
2019-03-15T20:41:07.064Z,13.07
2019-03-15T20:43:36.190Z,12.93
2019-03-15T20:46:05.317Z,9.33
2019-03-15T20:48:34.436Z,11.37
2019-03-15T20:51:04.735Z,13.43
2019-03-15T20:53:33.856Z,15.33
2019-03-15T20:56:03.004Z,13.40
2019-03-15T20:58:32.086Z,15.57
2019-03-15T21:01:01.205Z,13.33
2019-03-15T21:03:30.315Z,11.03
2019-03-15T21:05:59.491Z,15.63
2019-03-15T21:08:28.671Z,20.63
2019-03-15T21:10:57.792Z,14.90
2019-03-15T21:13:26.913Z,12.77
2019-03-15T21:15:56.027Z,10.77
2019-03-15T21:18:25.125Z,14.27
2019-03-15T21:20:54.250Z,11.37
2019-03-15T21:23:23.359Z,12.60
2019-03-15T21:25:52.475Z,13.83
2019-03-15T21:28:21.570Z,11.20
2019-03-15T21:30:50.737Z,6.13
2019-03-15T21:33:19.974Z,11.67
2019-03-15T21:35:49.241Z,13.07
2019-03-15T21:38:18.358Z,8.20
2019-03-15T21:40:47.476Z,16.60
2019-03-15T21:43:16.607Z,14.67
2019-03-15T21:45:45.755Z,16.13
2019-03-15T21:48:14.889Z,11.93
2019-03-15T21:50:44.020Z,13.43
2019-03-15T21:53:13.221Z,13.40
2019-03-15T21:55:42.351Z,17.23
2019-03-15T21:58:11.464Z,9.63
2019-03-15T22:00:41.242Z,7.50
2019-03-15T22:03:10.510Z,17.50
2019-03-15T22:05:40.096Z,13.13
2019-03-15T22:08:09.848Z,18.47
2019-03-15T22:10:39.157Z,12.40
2019-03-15T22:13:08.286Z,20.57
2019-03-15T22:15:37.885Z,15.67
2019-03-15T22:18:07.472Z,21.17
2019-03-15T22:20:36.707Z,16.30
2019-03-15T22:23:05.868Z,21.63
2019-03-15T22:25:35.481Z,10.87
2019-03-15T22:28:05.193Z,12.73
2019-03-15T22:30:34.500Z,15.67
2019-03-15T22:33:03.642Z,15.27
2019-03-15T22:35:32.781Z,16.13
2019-03-15T22:38:01.952Z,19.43
2019-03-15T22:40:31.225Z,10.27
2019-03-15T22:43:00.563Z,20.00
2019-03-15T22:45:29.745Z,17.57
2019-03-15T22:47:58.873Z,18.00
2019-03-15T22:50:28.002Z,14.57
2019-03-15T22:52:57.151Z,17.53
2019-03-15T22:55:26.802Z,12.33
2019-03-15T22:58:00.196Z,15.97
2019-03-15T23:00:32.163Z,14.63
2019-03-15T23:03:03.540Z,13.17
2019-03-15T23:05:33.386Z,16.00
2019-03-15T23:08:02.569Z,14.23
2019-03-15T23:10:32.367Z,19.00
2019-03-15T23:13:01.989Z,13.43
2019-03-15T23:15:31.618Z,17.10
2019-03-15T23:18:02.240Z,19.13
2019-03-15T23:20:31.428Z,22.10
2019-03-15T23:23:01.021Z,13.57
2019-03-15T23:25:30.256Z,10.87
2019-03-15T23:27:59.428Z,15.47
2019-03-15T23:30:28.537Z,15.03
2019-03-15T23:32:57.635Z,17.57
2019-03-15T23:35:26.751Z,14.23
2019-03-15T23:37:55.866Z,13.83
2019-03-15T23:40:24.985Z,13.80
2019-03-15T23:42:54.118Z,14.57
2019-03-15T23:45:23.231Z,15.03
2019-03-15T23:47:52.371Z,15.97
2019-03-15T23:50:21.929Z,15.03
2019-03-15T23:52:51.577Z,11.20
2019-03-15T23:55:21.203Z,14.47
2019-03-15T23:57:50.421Z,17.07
